sensor_id;sensor_type;location;lat;lon;timestamp;P1;durP1;ratioP1;P2;durP2;ratioP2
15126;SDS011;7664;52.008;4.748;2023-03-12T00:01:20;8.75;;;4.05;;
15126;SDS011;7664;52.008;4.748;2023-03-12T00:03:48;9.10;;;4.28;;
15126;SDS011;7664;52.008;4.748;2023-03-12T00:06:19;8.98;;;4.22;;
15126;SDS011;7664;52.008;4.748;2023-03-12T00:08:48;9.57;;;4.90;;
15126;SDS011;7664;52.008;4.748;2023-03-12T00:11:17;6.75;;;3.65;;
15126;SDS011;7664;52.008;4.748;2023-03-12T00:13:48;6.13;;;3.92;;
15126;SDS011;7664;52.008;4.748;2023-03-12T00:16:16;8.35;;;3.92;;
15126;SDS011;7664;52.008;4.748;2023-03-12T00:18:46;7.47;;;4.18;;
15126;SDS011;7664;52.008;4.748;2023-03-12T00:21:14;6.88;;;4.50;;
15126;SDS011;7664;52.008;4.748;2023-03-12T00:23:44;9.35;;;5.20;;
15126;SDS011;7664;52.008;4.748;2023-03-12T00:26:13;7.40;;;4.43;;
15126;SDS011;7664;52.008;4.748;2023-03-12T00:28:42;9.43;;;4.72;;
15126;SDS011;7664;52.008;4.748;2023-03-12T00:31:14;7.97;;;4.50;;
15126;SDS011;7664;52.008;4.748;2023-03-12T00:33:45;8.95;;;4.45;;
15126;SDS011;7664;52.008;4.748;2023-03-12T00:36:14;6.07;;;4.60;;
15126;SDS011;7664;52.008;4.748;2023-03-12T00:38:46;7.10;;;4.18;;
15126;SDS011;7664;52.008;4.748;2023-03-12T00:41:15;8.27;;;4.20;;
15126;SDS011;7664;52.008;4.748;2023-03-12T00:43:45;7.50;;;4.07;;
15126;SDS011;7664;52.008;4.748;2023-03-12T00:46:13;6.38;;;3.45;;
15126;SDS011;7664;52.008;4.748;2023-03-12T00:48:42;7.93;;;3.58;;
15126;SDS011;7664;52.008;4.748;2023-03-12T00:51:15;6.85;;;4.10;;
15126;SDS011;7664;52.008;4.748;2023-03-12T00:53:43;7.55;;;3.63;;
15126;SDS011;7664;52.008;4.748;2023-03-12T00:56:13;9.35;;;3.83;;
15126;SDS011;7664;52.008;4.748;2023-03-12T00:58:43;9.27;;;3.40;;
15126;SDS011;7664;52.008;4.748;2023-03-12T01:01:12;9.35;;;3.88;;
15126;SDS011;7664;52.008;4.748;2023-03-12T01:03:43;8.45;;;3.38;;
15126;SDS011;7664;52.008;4.748;2023-03-12T01:06:15;5.57;;;3.53;;
15126;SDS011;7664;52.008;4.748;2023-03-12T01:08:45;4.43;;;3.10;;
15126;SDS011;7664;52.008;4.748;2023-03-12T01:11:18;5.78;;;3.58;;
15126;SDS011;7664;52.008;4.748;2023-03-12T01:13:49;4.07;;;3.20;;
15126;SDS011;7664;52.008;4.748;2023-03-12T01:16:17;6.50;;;3.17;;
15126;SDS011;7664;52.008;4.748;2023-03-12T01:18:45;7.68;;;3.42;;
15126;SDS011;7664;52.008;4.748;2023-03-12T01:21:14;6.45;;;3.33;;
15126;SDS011;7664;52.008;4.748;2023-03-12T01:23:42;6.93;;;3.13;;
15126;SDS011;7664;52.008;4.748;2023-03-12T01:26:11;4.93;;;3.15;;
15126;SDS011;7664;52.008;4.748;2023-03-12T01:28:40;10.18;;;3.85;;
15126;SDS011;7664;52.008;4.748;2023-03-12T01:31:09;6.18;;;3.22;;
15126;SDS011;7664;52.008;4.748;2023-03-12T01:33:38;5.85;;;3.50;;
15126;SDS011;7664;52.008;4.748;2023-03-12T01:36:14;5.40;;;3.22;;
15126;SDS011;7664;52.008;4.748;2023-03-12T01:38:45;4.43;;;3.20;;
15126;SDS011;7664;52.008;4.748;2023-03-12T01:41:14;9.20;;;2.55;;
15126;SDS011;7664;52.008;4.748;2023-03-12T01:43:43;6.03;;;3.00;;
15126;SDS011;7664;52.008;4.748;2023-03-12T01:49:01;5.90;;;3.25;;
15126;SDS011;7664;52.008;4.748;2023-03-12T01:51:31;8.95;;;3.75;;
15126;SDS011;7664;52.008;4.748;2023-03-12T01:54:01;9.18;;;3.42;;
15126;SDS011;7664;52.008;4.748;2023-03-12T01:56:34;9.60;;;3.58;;
15126;SDS011;7664;52.008;4.748;2023-03-12T01:59:11;14.23;;;3.80;;
15126;SDS011;7664;52.008;4.748;2023-03-12T02:01:41;8.65;;;3.42;;
15126;SDS011;7664;52.008;4.748;2023-03-12T02:04:12;6.22;;;3.33;;
15126;SDS011;7664;52.008;4.748;2023-03-12T02:06:46;7.20;;;3.67;;
15126;SDS011;7664;52.008;4.748;2023-03-12T02:09:15;8.18;;;4.20;;
15126;SDS011;7664;52.008;4.748;2023-03-12T02:11:46;7.38;;;3.65;;
15126;SDS011;7664;52.008;4.748;2023-03-12T02:14:16;8.93;;;3.80;;
15126;SDS011;7664;52.008;4.748;2023-03-12T02:16:44;4.93;;;3.08;;
15126;SDS011;7664;52.008;4.748;2023-03-12T02:19:17;5.30;;;3.20;;
15126;SDS011;7664;52.008;4.748;2023-03-12T02:21:47;15.80;;;3.30;;
15126;SDS011;7664;52.008;4.748;2023-03-12T02:24:21;4.72;;;3.08;;
15126;SDS011;7664;52.008;4.748;2023-03-12T02:26:53;4.72;;;2.88;;
15126;SDS011;7664;52.008;4.748;2023-03-12T02:29:21;6.32;;;3.40;;
15126;SDS011;7664;52.008;4.748;2023-03-12T02:31:51;5.80;;;3.25;;
15126;SDS011;7664;52.008;4.748;2023-03-12T02:34:21;6.20;;;3.30;;
15126;SDS011;7664;52.008;4.748;2023-03-12T02:36:51;5.82;;;2.92;;
15126;SDS011;7664;52.008;4.748;2023-03-12T02:39:24;4.50;;;3.08;;
15126;SDS011;7664;52.008;4.748;2023-03-12T02:41:57;8.70;;;3.70;;
15126;SDS011;7664;52.008;4.748;2023-03-12T02:44:28;5.80;;;3.85;;
15126;SDS011;7664;52.008;4.748;2023-03-12T02:46:59;8.07;;;2.67;;
15126;SDS011;7664;52.008;4.748;2023-03-12T02:49:29;5.50;;;2.92;;
15126;SDS011;7664;52.008;4.748;2023-03-12T02:52:01;5.40;;;2.65;;
15126;SDS011;7664;52.008;4.748;2023-03-12T02:54:31;4.85;;;2.97;;
15126;SDS011;7664;52.008;4.748;2023-03-12T02:57:01;5.30;;;3.38;;
15126;SDS011;7664;52.008;4.748;2023-03-12T02:59:31;5.50;;;2.88;;
15126;SDS011;7664;52.008;4.748;2023-03-12T03:01:59;5.15;;;2.97;;
15126;SDS011;7664;52.008;4.748;2023-03-12T03:04:38;6.55;;;2.67;;
15126;SDS011;7664;52.008;4.748;2023-03-12T03:07:06;4.53;;;2.88;;
15126;SDS011;7664;52.008;4.748;2023-03-12T03:09:35;4.32;;;2.65;;
15126;SDS011;7664;52.008;4.748;2023-03-12T03:12:05;3.72;;;2.65;;
15126;SDS011;7664;52.008;4.748;2023-03-12T03:14:35;5.57;;;2.80;;
15126;SDS011;7664;52.008;4.748;2023-03-12T03:17:04;6.40;;;2.83;;
15126;SDS011;7664;52.008;4.748;2023-03-12T03:19:33;5.05;;;2.35;;
15126;SDS011;7664;52.008;4.748;2023-03-12T03:22:04;4.53;;;2.58;;
15126;SDS011;7664;52.008;4.748;2023-03-12T03:24:34;4.22;;;2.30;;
15126;SDS011;7664;52.008;4.748;2023-03-12T03:27:04;5.35;;;2.78;;
15126;SDS011;7664;52.008;4.748;2023-03-12T03:29:33;7.07;;;3.03;;
15126;SDS011;7664;52.008;4.748;2023-03-12T03:32:01;4.43;;;2.50;;
15126;SDS011;7664;52.008;4.748;2023-03-12T03:34:30;6.45;;;2.40;;
15126;SDS011;7664;52.008;4.748;2023-03-12T03:36:58;5.47;;;3.33;;
15126;SDS011;7664;52.008;4.748;2023-03-12T03:39:30;3.88;;;2.55;;
15126;SDS011;7664;52.008;4.748;2023-03-12T03:42:00;6.22;;;3.38;;
15126;SDS011;7664;52.008;4.748;2023-03-12T03:44:34;7.40;;;3.03;;
15126;SDS011;7664;52.008;4.748;2023-03-12T03:47:03;7.90;;;3.53;;
15126;SDS011;7664;52.008;4.748;2023-03-12T03:49:31;5.50;;;3.42;;
15126;SDS011;7664;52.008;4.748;2023-03-12T03:52:00;4.63;;;2.63;;
15126;SDS011;7664;52.008;4.748;2023-03-12T03:54:32;8.32;;;2.85;;
15126;SDS011;7664;52.008;4.748;2023-03-12T03:57:02;6.32;;;3.28;;
15126;SDS011;7664;52.008;4.748;2023-03-12T03:59:31;7.53;;;3.10;;
15126;SDS011;7664;52.008;4.748;2023-03-12T04:02:08;9.40;;;3.50;;
15126;SDS011;7664;52.008;4.748;2023-03-12T04:04:39;5.35;;;2.75;;
15126;SDS011;7664;52.008;4.748;2023-03-12T04:07:08;5.78;;;2.83;;
15126;SDS011;7664;52.008;4.748;2023-03-12T04:09:36;5.95;;;2.78;;
15126;SDS011;7664;52.008;4.748;2023-03-12T04:12:07;4.32;;;2.78;;
15126;SDS011;7664;52.008;4.748;2023-03-12T04:14:39;7.18;;;3.30;;
15126;SDS011;7664;52.008;4.748;2023-03-12T04:17:13;5.10;;;2.90;;
15126;SDS011;7664;52.008;4.748;2023-03-12T04:19:42;6.90;;;2.90;;
15126;SDS011;7664;52.008;4.748;2023-03-12T04:22:12;10.43;;;3.22;;
15126;SDS011;7664;52.008;4.748;2023-03-12T04:24:41;8.40;;;3.53;;
15126;SDS011;7664;52.008;4.748;2023-03-12T04:27:10;7.38;;;3.25;;
15126;SDS011;7664;52.008;4.748;2023-03-12T04:29:38;7.82;;;3.30;;
15126;SDS011;7664;52.008;4.748;2023-03-12T04:32:07;7.32;;;3.15;;
15126;SDS011;7664;52.008;4.748;2023-03-12T04:34:37;5.00;;;2.67;;
15126;SDS011;7664;52.008;4.748;2023-03-12T04:37:06;4.05;;;2.78;;
15126;SDS011;7664;52.008;4.748;2023-03-12T04:39:36;5.00;;;3.20;;
15126;SDS011;7664;52.008;4.748;2023-03-12T04:42:05;6.93;;;2.85;;
15126;SDS011;7664;52.008;4.748;2023-03-12T04:44:40;5.80;;;2.83;;
15126;SDS011;7664;52.008;4.748;2023-03-12T04:47:08;20.05;;;3.13;;
15126;SDS011;7664;52.008;4.748;2023-03-12T04:49:40;7.20;;;3.03;;
15126;SDS011;7664;52.008;4.748;2023-03-12T04:52:09;6.63;;;3.38;;
15126;SDS011;7664;52.008;4.748;2023-03-12T04:54:37;15.68;;;3.53;;
15126;SDS011;7664;52.008;4.748;2023-03-12T04:57:06;4.20;;;2.67;;
15126;SDS011;7664;52.008;4.748;2023-03-12T04:59:34;7.18;;;3.22;;
15126;SDS011;7664;52.008;4.748;2023-03-12T05:02:05;12.43;;;3.55;;
15126;SDS011;7664;52.008;4.748;2023-03-12T05:04:34;6.78;;;3.13;;
15126;SDS011;7664;52.008;4.748;2023-03-12T05:07:09;6.30;;;3.40;;
15126;SDS011;7664;52.008;4.748;2023-03-12T05:09:37;7.32;;;3.42;;
15126;SDS011;7664;52.008;4.748;2023-03-12T05:12:12;5.95;;;3.15;;
15126;SDS011;7664;52.008;4.748;2023-03-12T05:14:43;6.55;;;4.05;;
15126;SDS011;7664;52.008;4.748;2023-03-12T05:17:12;5.15;;;2.90;;
15126;SDS011;7664;52.008;4.748;2023-03-12T05:19:40;8.52;;;3.55;;
15126;SDS011;7664;52.008;4.748;2023-03-12T05:22:10;8.90;;;3.95;;
15126;SDS011;7664;52.008;4.748;2023-03-12T05:24:40;6.78;;;3.97;;
15126;SDS011;7664;52.008;4.748;2023-03-12T05:27:09;4.93;;;3.30;;
15126;SDS011;7664;52.008;4.748;2023-03-12T05:29:40;5.45;;;3.88;;
15126;SDS011;7664;52.008;4.748;2023-03-12T05:32:08;7.72;;;3.47;;
15126;SDS011;7664;52.008;4.748;2023-03-12T05:34:36;7.38;;;3.85;;
15126;SDS011;7664;52.008;4.748;2023-03-12T05:37:05;8.45;;;4.38;;
15126;SDS011;7664;52.008;4.748;2023-03-12T05:39:37;5.97;;;3.90;;
15126;SDS011;7664;52.008;4.748;2023-03-12T05:42:13;7.47;;;3.78;;
15126;SDS011;7664;52.008;4.748;2023-03-12T05:44:42;6.85;;;3.85;;
15126;SDS011;7664;52.008;4.748;2023-03-12T05:47:15;6.43;;;3.72;;
15126;SDS011;7664;52.008;4.748;2023-03-12T05:49:45;6.93;;;3.95;;
15126;SDS011;7664;52.008;4.748;2023-03-12T05:52:13;13.32;;;4.03;;
15126;SDS011;7664;52.008;4.748;2023-03-12T05:54:43;9.23;;;4.15;;
15126;SDS011;7664;52.008;4.748;2023-03-12T05:57:14;7.55;;;4.28;;
15126;SDS011;7664;52.008;4.748;2023-03-12T05:59:42;8.60;;;4.10;;
15126;SDS011;7664;52.008;4.748;2023-03-12T06:02:19;7.93;;;4.47;;
15126;SDS011;7664;52.008;4.748;2023-03-12T06:04:47;9.23;;;4.90;;
15126;SDS011;7664;52.008;4.748;2023-03-12T06:07:16;8.38;;;4.35;;
15126;SDS011;7664;52.008;4.748;2023-03-12T06:09:45;8.27;;;4.47;;
15126;SDS011;7664;52.008;4.748;2023-03-12T06:12:14;8.48;;;4.78;;
15126;SDS011;7664;52.008;4.748;2023-03-12T06:14:43;12.35;;;4.40;;
15126;SDS011;7664;52.008;4.748;2023-03-12T06:17:13;7.60;;;3.78;;
15126;SDS011;7664;52.008;4.748;2023-03-12T06:19:42;10.15;;;4.28;;
15126;SDS011;7664;52.008;4.748;2023-03-12T06:22:10;8.25;;;4.15;;
15126;SDS011;7664;52.008;4.748;2023-03-12T06:24:41;7.65;;;4.35;;
15126;SDS011;7664;52.008;4.748;2023-03-12T06:27:15;10.95;;;5.10;;
15126;SDS011;7664;52.008;4.748;2023-03-12T06:29:46;5.70;;;4.10;;
15126;SDS011;7664;52.008;4.748;2023-03-12T06:32:19;10.60;;;4.97;;
15126;SDS011;7664;52.008;4.748;2023-03-12T06:34:48;7.95;;;4.60;;
15126;SDS011;7664;52.008;4.748;2023-03-12T06:37:20;10.82;;;5.00;;
15126;SDS011;7664;52.008;4.748;2023-03-12T06:39:49;10.23;;;4.93;;
15126;SDS011;7664;52.008;4.748;2023-03-12T06:42:19;8.75;;;4.95;;
15126;SDS011;7664;52.008;4.748;2023-03-12T06:44:52;13.50;;;5.32;;
15126;SDS011;7664;52.008;4.748;2023-03-12T06:47:22;10.25;;;5.13;;
15126;SDS011;7664;52.008;4.748;2023-03-12T06:49:51;8.85;;;5.15;;
15126;SDS011;7664;52.008;4.748;2023-03-12T06:52:19;9.80;;;5.72;;
15126;SDS011;7664;52.008;4.748;2023-03-12T06:54:47;14.75;;;5.22;;
15126;SDS011;7664;52.008;4.748;2023-03-12T06:57:16;9.15;;;6.13;;
15126;SDS011;7664;52.008;4.748;2023-03-12T06:59:46;9.10;;;5.95;;
15126;SDS011;7664;52.008;4.748;2023-03-12T07:02:16;12.48;;;6.22;;
15126;SDS011;7664;52.008;4.748;2023-03-12T07:04:45;13.98;;;6.40;;
15126;SDS011;7664;52.008;4.748;2023-03-12T07:07:13;9.52;;;6.18;;
15126;SDS011;7664;52.008;4.748;2023-03-12T07:09:42;8.82;;;5.15;;
15126;SDS011;7664;52.008;4.748;2023-03-12T07:12:13;9.52;;;5.55;;
15126;SDS011;7664;52.008;4.748;2023-03-12T07:14:41;10.88;;;5.70;;
15126;SDS011;7664;52.008;4.748;2023-03-12T07:17:11;10.23;;;5.80;;
15126;SDS011;7664;52.008;4.748;2023-03-12T07:19:39;9.70;;;5.78;;
15126;SDS011;7664;52.008;4.748;2023-03-12T07:22:07;11.45;;;6.30;;
15126;SDS011;7664;52.008;4.748;2023-03-12T07:24:38;10.52;;;5.18;;
15126;SDS011;7664;52.008;4.748;2023-03-12T07:27:06;10.30;;;6.57;;
15126;SDS011;7664;52.008;4.748;2023-03-12T07:29:35;14.07;;;5.70;;
15126;SDS011;7664;52.008;4.748;2023-03-12T07:32:04;9.07;;;5.80;;
15126;SDS011;7664;52.008;4.748;2023-03-12T07:34:34;9.48;;;6.32;;
15126;SDS011;7664;52.008;4.748;2023-03-12T07:37:03;11.65;;;6.45;;
15126;SDS011;7664;52.008;4.748;2023-03-12T07:39:31;9.35;;;5.88;;
15126;SDS011;7664;52.008;4.748;2023-03-12T07:42:00;15.70;;;6.30;;
15126;SDS011;7664;52.008;4.748;2023-03-12T07:44:31;10.75;;;6.10;;
15126;SDS011;7664;52.008;4.748;2023-03-12T07:47:02;10.65;;;6.57;;
15126;SDS011;7664;52.008;4.748;2023-03-12T07:49:50;11.85;;;7.05;;
15126;SDS011;7664;52.008;4.748;2023-03-12T07:52:21;11.35;;;7.07;;
15126;SDS011;7664;52.008;4.748;2023-03-12T07:54:52;10.80;;;6.57;;
15126;SDS011;7664;52.008;4.748;2023-03-12T07:57:25;11.88;;;7.57;;
15126;SDS011;7664;52.008;4.748;2023-03-12T07:59:53;11.95;;;8.15;;
15126;SDS011;7664;52.008;4.748;2023-03-12T08:02:22;13.98;;;8.93;;
15126;SDS011;7664;52.008;4.748;2023-03-12T08:04:52;14.95;;;9.00;;
15126;SDS011;7664;52.008;4.748;2023-03-12T08:07:20;13.40;;;8.35;;
15126;SDS011;7664;52.008;4.748;2023-03-12T08:09:49;14.25;;;8.02;;
15126;SDS011;7664;52.008;4.748;2023-03-12T08:12:17;10.05;;;7.40;;
15126;SDS011;7664;52.008;4.748;2023-03-12T08:14:45;12.77;;;8.52;;
15126;SDS011;7664;52.008;4.748;2023-03-12T08:17:14;17.35;;;9.38;;
15126;SDS011;7664;52.008;4.748;2023-03-12T08:19:42;11.98;;;8.05;;
15126;SDS011;7664;52.008;4.748;2023-03-12T08:22:12;12.35;;;8.02;;
15126;SDS011;7664;52.008;4.748;2023-03-12T08:24:41;14.95;;;8.68;;
15126;SDS011;7664;52.008;4.748;2023-03-12T08:27:10;12.13;;;8.30;;
15126;SDS011;7664;52.008;4.748;2023-03-12T08:29:38;11.30;;;7.55;;
15126;SDS011;7664;52.008;4.748;2023-03-12T08:32:13;14.10;;;9.02;;
15126;SDS011;7664;52.008;4.748;2023-03-12T08:34:42;16.35;;;9.55;;
15126;SDS011;7664;52.008;4.748;2023-03-12T08:37:10;18.50;;;8.93;;
15126;SDS011;7664;52.008;4.748;2023-03-12T08:39:42;12.85;;;9.30;;
15126;SDS011;7664;52.008;4.748;2023-03-12T08:42:15;16.00;;;9.60;;
15126;SDS011;7664;52.008;4.748;2023-03-12T08:44:43;16.13;;;9.55;;
15126;SDS011;7664;52.008;4.748;2023-03-12T08:47:12;16.30;;;11.43;;
15126;SDS011;7664;52.008;4.748;2023-03-12T08:49:42;16.25;;;10.50;;
15126;SDS011;7664;52.008;4.748;2023-03-12T08:52:11;18.67;;;10.93;;
15126;SDS011;7664;52.008;4.748;2023-03-12T08:54:47;21.42;;;11.93;;
15126;SDS011;7664;52.008;4.748;2023-03-12T08:57:15;18.33;;;11.07;;
15126;SDS011;7664;52.008;4.748;2023-03-12T08:59:44;17.75;;;11.43;;
15126;SDS011;7664;52.008;4.748;2023-03-12T09:02:12;18.63;;;12.48;;
15126;SDS011;7664;52.008;4.748;2023-03-12T09:04:41;21.77;;;12.73;;
15126;SDS011;7664;52.008;4.748;2023-03-12T09:07:09;23.08;;;13.98;;
15126;SDS011;7664;52.008;4.748;2023-03-12T09:09:39;23.45;;;14.32;;
15126;SDS011;7664;52.008;4.748;2023-03-12T09:12:09;22.35;;;13.07;;
15126;SDS011;7664;52.008;4.748;2023-03-12T09:14:39;22.27;;;13.77;;
15126;SDS011;7664;52.008;4.748;2023-03-12T09:17:28;19.52;;;13.85;;
15126;SDS011;7664;52.008;4.748;2023-03-12T09:19:56;22.05;;;14.45;;
15126;SDS011;7664;52.008;4.748;2023-03-12T09:22:25;23.27;;;13.95;;
15126;SDS011;7664;52.008;4.748;2023-03-12T09:24:53;23.08;;;14.75;;
15126;SDS011;7664;52.008;4.748;2023-03-12T09:27:23;19.33;;;12.95;;
15126;SDS011;7664;52.008;4.748;2023-03-12T09:29:52;18.70;;;13.30;;
15126;SDS011;7664;52.008;4.748;2023-03-12T09:32:26;22.88;;;14.10;;
15126;SDS011;7664;52.008;4.748;2023-03-12T09:34:55;20.70;;;13.75;;
15126;SDS011;7664;52.008;4.748;2023-03-12T09:37:30;23.48;;;14.07;;
15126;SDS011;7664;52.008;4.748;2023-03-12T09:40:01;23.05;;;13.27;;
15126;SDS011;7664;52.008;4.748;2023-03-12T09:42:37;19.73;;;13.23;;
15126;SDS011;7664;52.008;4.748;2023-03-12T09:45:13;26.05;;;13.43;;
15126;SDS011;7664;52.008;4.748;2023-03-12T09:47:45;17.10;;;11.68;;
15126;SDS011;7664;52.008;4.748;2023-03-12T09:50:17;18.73;;;10.93;;
15126;SDS011;7664;52.008;4.748;2023-03-12T09:52:50;17.80;;;10.18;;
15126;SDS011;7664;52.008;4.748;2023-03-12T09:55:20;17.98;;;12.38;;
15126;SDS011;7664;52.008;4.748;2023-03-12T09:57:50;14.90;;;9.18;;
15126;SDS011;7664;52.008;4.748;2023-03-12T10:00:21;13.15;;;7.93;;
15126;SDS011;7664;52.008;4.748;2023-03-12T10:03:04;13.82;;;8.75;;
15126;SDS011;7664;52.008;4.748;2023-03-12T10:05:35;21.30;;;8.85;;
15126;SDS011;7664;52.008;4.748;2023-03-12T10:08:09;18.73;;;9.43;;
15126;SDS011;7664;52.008;4.748;2023-03-12T10:10:53;20.77;;;8.75;;
15126;SDS011;7664;52.008;4.748;2023-03-12T10:13:34;20.27;;;9.90;;
15126;SDS011;7664;52.008;4.748;2023-03-12T10:16:09;20.67;;;7.85;;
15126;SDS011;7664;52.008;4.748;2023-03-12T10:18:47;15.65;;;5.72;;
15126;SDS011;7664;52.008;4.748;2023-03-12T10:21:19;17.02;;;6.07;;
15126;SDS011;7664;52.008;4.748;2023-03-12T10:23:53;17.88;;;4.50;;
15126;SDS011;7664;52.008;4.748;2023-03-12T10:26:25;15.02;;;5.18;;
15126;SDS011;7664;52.008;4.748;2023-03-12T10:29:00;17.52;;;4.55;;
15126;SDS011;7664;52.008;4.748;2023-03-12T10:31:31;11.55;;;3.53;;
15126;SDS011;7664;52.008;4.748;2023-03-12T10:34:02;11.07;;;3.95;;
15126;SDS011;7664;52.008;4.748;2023-03-12T10:36:39;17.13;;;3.10;;
15126;SDS011;7664;52.008;4.748;2023-03-12T10:39:09;17.13;;;4.45;;
15126;SDS011;7664;52.008;4.748;2023-03-12T10:41:40;22.92;;;4.43;;
15126;SDS011;7664;52.008;4.748;2023-03-12T10:44:13;24.50;;;3.83;;
15126;SDS011;7664;52.008;4.748;2023-03-12T10:46:54;14.75;;;4.25;;
15126;SDS011;7664;52.008;4.748;2023-03-12T10:49:28;18.83;;;4.88;;
15126;SDS011;7664;52.008;4.748;2023-03-12T10:51:58;16.20;;;3.45;;
15126;SDS011;7664;52.008;4.748;2023-03-12T10:54:28;14.70;;;3.63;;
15126;SDS011;7664;52.008;4.748;2023-03-12T10:56:57;20.00;;;4.47;;
15126;SDS011;7664;52.008;4.748;2023-03-12T10:59:28;15.80;;;2.90;;
15126;SDS011;7664;52.008;4.748;2023-03-12T11:02:01;17.42;;;3.88;;
15126;SDS011;7664;52.008;4.748;2023-03-12T11:04:31;13.75;;;3.05;;
15126;SDS011;7664;52.008;4.748;2023-03-12T11:07:20;19.00;;;4.28;;
15126;SDS011;7664;52.008;4.748;2023-03-12T11:10:02;14.48;;;3.22;;
15126;SDS011;7664;52.008;4.748;2023-03-12T11:12:30;16.15;;;4.30;;
15126;SDS011;7664;52.008;4.748;2023-03-12T11:20:56;14.77;;;3.53;;
15126;SDS011;7664;52.008;4.748;2023-03-12T11:23:28;15.77;;;4.55;;
15126;SDS011;7664;52.008;4.748;2023-03-12T11:26:00;11.20;;;3.63;;
15126;SDS011;7664;52.008;4.748;2023-03-12T11:28:34;16.08;;;3.65;;
15126;SDS011;7664;52.008;4.748;2023-03-12T11:31:07;13.57;;;4.30;;
15126;SDS011;7664;52.008;4.748;2023-03-12T11:33:36;17.13;;;3.60;;
15126;SDS011;7664;52.008;4.748;2023-03-12T11:36:11;16.63;;;3.45;;
15126;SDS011;7664;52.008;4.748;2023-03-12T11:38:44;14.50;;;3.80;;
15126;SDS011;7664;52.008;4.748;2023-03-12T11:41:20;12.55;;;3.28;;
15126;SDS011;7664;52.008;4.748;2023-03-12T11:43:55;17.83;;;3.72;;
15126;SDS011;7664;52.008;4.748;2023-03-12T11:46:29;25.02;;;3.92;;
15126;SDS011;7664;52.008;4.748;2023-03-12T11:49:06;20.33;;;4.05;;
15126;SDS011;7664;52.008;4.748;2023-03-12T11:51:45;14.85;;;2.80;;
15126;SDS011;7664;52.008;4.748;2023-03-12T11:57:04;17.75;;;4.47;;
15126;SDS011;7664;52.008;4.748;2023-03-12T11:59:38;18.27;;;3.60;;
15126;SDS011;7664;52.008;4.748;2023-03-12T12:02:12;20.27;;;4.10;;
15126;SDS011;7664;52.008;4.748;2023-03-12T12:07:32;21.77;;;4.43;;
15126;SDS011;7664;52.008;4.748;2023-03-12T12:10:05;14.80;;;3.35;;
15126;SDS011;7664;52.008;4.748;2023-03-12T12:12:42;17.63;;;4.32;;
15126;SDS011;7664;52.008;4.748;2023-03-12T12:15:14;15.40;;;4.38;;
15126;SDS011;7664;52.008;4.748;2023-03-12T12:17:50;17.40;;;4.00;;
15126;SDS011;7664;52.008;4.748;2023-03-12T12:20:26;23.35;;;3.97;;
15126;SDS011;7664;52.008;4.748;2023-03-12T12:23:03;14.13;;;3.58;;
15126;SDS011;7664;52.008;4.748;2023-03-12T12:25:42;15.32;;;3.72;;
15126;SDS011;7664;52.008;4.748;2023-03-12T12:28:25;16.40;;;3.78;;
15126;SDS011;7664;52.008;4.748;2023-03-12T12:31:00;14.80;;;3.85;;
15126;SDS011;7664;52.008;4.748;2023-03-12T12:33:33;12.25;;;2.80;;
15126;SDS011;7664;52.008;4.748;2023-03-12T12:36:06;15.80;;;3.83;;
15126;SDS011;7664;52.008;4.748;2023-03-12T12:38:38;24.33;;;5.47;;
15126;SDS011;7664;52.008;4.748;2023-03-12T12:41:08;29.35;;;3.13;;
15126;SDS011;7664;52.008;4.748;2023-03-12T12:43:41;23.08;;;4.00;;
15126;SDS011;7664;52.008;4.748;2023-03-12T12:46:16;14.35;;;4.00;;
15126;SDS011;7664;52.008;4.748;2023-03-12T12:48:45;17.15;;;4.25;;
15126;SDS011;7664;52.008;4.748;2023-03-12T12:51:15;23.23;;;4.72;;
15126;SDS011;7664;52.008;4.748;2023-03-12T12:53:48;17.98;;;4.00;;
15126;SDS011;7664;52.008;4.748;2023-03-12T12:56:21;22.23;;;5.03;;
15126;SDS011;7664;52.008;4.748;2023-03-12T12:58:58;16.10;;;3.88;;
15126;SDS011;7664;52.008;4.748;2023-03-12T13:01:28;18.17;;;4.00;;
15126;SDS011;7664;52.008;4.748;2023-03-12T13:03:59;19.63;;;3.83;;
15126;SDS011;7664;52.008;4.748;2023-03-12T13:06:34;16.67;;;4.40;;
15126;SDS011;7664;52.008;4.748;2023-03-12T13:09:22;12.70;;;3.47;;
15126;SDS011;7664;52.008;4.748;2023-03-12T13:11:51;16.58;;;4.07;;
15126;SDS011;7664;52.008;4.748;2023-03-12T13:14:35;16.40;;;3.08;;
15126;SDS011;7664;52.008;4.748;2023-03-12T13:17:14;19.75;;;3.65;;
15126;SDS011;7664;52.008;4.748;2023-03-12T13:19:47;22.45;;;3.38;;
15126;SDS011;7664;52.008;4.748;2023-03-12T13:22:33;11.82;;;2.55;;
15126;SDS011;7664;52.008;4.748;2023-03-12T13:25:11;16.77;;;3.80;;
15126;SDS011;7664;52.008;4.748;2023-03-12T13:27:44;20.02;;;3.80;;
15126;SDS011;7664;52.008;4.748;2023-03-12T13:30:44;12.18;;;3.35;;
15126;SDS011;7664;52.008;4.748;2023-03-12T13:33:13;13.68;;;3.83;;
15126;SDS011;7664;52.008;4.748;2023-03-12T13:35:46;23.55;;;3.47;;
15126;SDS011;7664;52.008;4.748;2023-03-12T13:38:17;13.65;;;3.55;;
15126;SDS011;7664;52.008;4.748;2023-03-12T13:43:41;15.27;;;3.03;;
15126;SDS011;7664;52.008;4.748;2023-03-12T13:49:10;18.10;;;3.20;;
15126;SDS011;7664;52.008;4.748;2023-03-12T13:51:43;16.33;;;2.85;;
15126;SDS011;7664;52.008;4.748;2023-03-12T13:54:14;18.10;;;3.83;;
15126;SDS011;7664;52.008;4.748;2023-03-12T13:56:45;11.30;;;2.80;;
15126;SDS011;7664;52.008;4.748;2023-03-12T13:59:24;12.73;;;3.22;;
15126;SDS011;7664;52.008;4.748;2023-03-12T14:01:54;14.50;;;3.10;;
15126;SDS011;7664;52.008;4.748;2023-03-12T14:04:24;15.68;;;2.95;;
15126;SDS011;7664;52.008;4.748;2023-03-12T14:06:59;17.48;;;4.22;;
15126;SDS011;7664;52.008;4.748;2023-03-12T14:09:36;17.80;;;3.22;;
15126;SDS011;7664;52.008;4.748;2023-03-12T14:12:10;18.92;;;4.22;;
15126;SDS011;7664;52.008;4.748;2023-03-12T14:14:48;12.73;;;2.53;;
15126;SDS011;7664;52.008;4.748;2023-03-12T14:17:22;13.00;;;3.08;;
15126;SDS011;7664;52.008;4.748;2023-03-12T14:19:55;16.83;;;4.03;;
15126;SDS011;7664;52.008;4.748;2023-03-12T14:22:24;21.85;;;3.95;;
15126;SDS011;7664;52.008;4.748;2023-03-12T14:24:56;17.95;;;4.10;;
15126;SDS011;7664;52.008;4.748;2023-03-12T14:27:30;12.43;;;3.95;;
15126;SDS011;7664;52.008;4.748;2023-03-12T14:30:06;22.95;;;3.53;;
15126;SDS011;7664;52.008;4.748;2023-03-12T14:32:39;29.80;;;4.65;;
15126;SDS011;7664;52.008;4.748;2023-03-12T14:35:12;14.77;;;3.47;;
15126;SDS011;7664;52.008;4.748;2023-03-12T14:37:46;25.33;;;6.05;;
15126;SDS011;7664;52.008;4.748;2023-03-12T14:40:19;19.27;;;4.80;;
15126;SDS011;7664;52.008;4.748;2023-03-12T14:42:49;15.52;;;3.47;;
15126;SDS011;7664;52.008;4.748;2023-03-12T14:45:19;21.45;;;3.50;;
15126;SDS011;7664;52.008;4.748;2023-03-12T14:47:51;19.05;;;4.25;;
15126;SDS011;7664;52.008;4.748;2023-03-12T14:50:23;19.58;;;4.25;;
15126;SDS011;7664;52.008;4.748;2023-03-12T14:52:54;14.50;;;2.83;;
15126;SDS011;7664;52.008;4.748;2023-03-12T14:55:27;13.60;;;2.90;;
15126;SDS011;7664;52.008;4.748;2023-03-12T14:58:02;12.00;;;3.38;;
15126;SDS011;7664;52.008;4.748;2023-03-12T15:00:32;18.02;;;3.95;;
15126;SDS011;7664;52.008;4.748;2023-03-12T15:03:02;14.45;;;3.40;;
15126;SDS011;7664;52.008;4.748;2023-03-12T15:05:31;20.25;;;5.15;;
15126;SDS011;7664;52.008;4.748;2023-03-12T15:08:03;14.52;;;3.67;;
15126;SDS011;7664;52.008;4.748;2023-03-12T15:10:34;19.52;;;4.03;;
15126;SDS011;7664;52.008;4.748;2023-03-12T15:13:02;11.73;;;3.50;;
15126;SDS011;7664;52.008;4.748;2023-03-12T15:15:34;15.43;;;3.38;;
15126;SDS011;7664;52.008;4.748;2023-03-12T15:18:04;15.57;;;3.10;;
15126;SDS011;7664;52.008;4.748;2023-03-12T15:20:34;15.30;;;3.33;;
15126;SDS011;7664;52.008;4.748;2023-03-12T15:23:03;20.48;;;4.35;;
15126;SDS011;7664;52.008;4.748;2023-03-12T15:25:32;20.08;;;4.72;;
15126;SDS011;7664;52.008;4.748;2023-03-12T15:28:02;20.73;;;4.82;;
15126;SDS011;7664;52.008;4.748;2023-03-12T15:30:36;21.00;;;6.00;;
15126;SDS011;7664;52.008;4.748;2023-03-12T15:33:06;26.30;;;6.75;;
15126;SDS011;7664;52.008;4.748;2023-03-12T15:35:35;23.55;;;8.23;;
15126;SDS011;7664;52.008;4.748;2023-03-12T15:38:04;22.67;;;6.47;;